Terminal Aerodrome Forecast
Issued by NWS Mt. Holly, NJ

Home | Current Version | Previous Version | Text Only | Print | Product List | Glossary On
Versions: 1 2 3 4 5 6 7 8 9 10 11 12 13 14 15 16 17 18 19 20 21 22 23 24 25 26 27 28 29 30 31 32 33 34 35 36 37 38 39 40 41 42 43 44 45 46 47 48 49 50
000
FTUS41 KPHI 220100 AAA
TAFABE
TAF AMD
KABE 220101Z 2201/2224 17004KT P6SM SCT040
      TEMPO 2201/2203 3SM TSRA BR OVC015CB
     FM220400 VRB03KT P6SM BKN040
      TEMPO 2206/2208 3SM -SHRA BR OVC020
     FM220800 VRB03KT 3SM -SHRA BR OVC015
     FM221600 09006KT P6SM BKN035=

USA.gov is the U.S. government's official web portal to all federal, state and local government web resources and services.